sensor_id;sensor_type;location;lat;lon;timestamp;P1;durP1;ratioP1;P2;durP2;ratioP2
15082;SDS011;7640;53.116;6.878;2023-05-07T00:00:04;50.53;;;36.90;;
15082;SDS011;7640;53.116;6.878;2023-05-07T00:02:35;47.97;;;37.33;;
15082;SDS011;7640;53.116;6.878;2023-05-07T00:05:05;51.00;;;39.00;;
15082;SDS011;7640;53.116;6.878;2023-05-07T00:07:35;56.83;;;47.13;;
15082;SDS011;7640;53.116;6.878;2023-05-07T00:10:08;53.90;;;36.20;;
15082;SDS011;7640;53.116;6.878;2023-05-07T00:12:39;60.33;;;54.33;;
15082;SDS011;7640;53.116;6.878;2023-05-07T00:15:08;56.03;;;46.00;;
15082;SDS011;7640;53.116;6.878;2023-05-07T00:17:38;50.33;;;34.77;;
15082;SDS011;7640;53.116;6.878;2023-05-07T00:20:07;48.63;;;33.20;;
15082;SDS011;7640;53.116;6.878;2023-05-07T00:22:36;50.10;;;34.40;;
15082;SDS011;7640;53.116;6.878;2023-05-07T00:25:05;46.77;;;32.90;;
15082;SDS011;7640;53.116;6.878;2023-05-07T00:27:36;44.87;;;34.40;;
15082;SDS011;7640;53.116;6.878;2023-05-07T00:30:05;52.43;;;36.73;;
15082;SDS011;7640;53.116;6.878;2023-05-07T00:32:36;48.53;;;40.33;;
15082;SDS011;7640;53.116;6.878;2023-05-07T00:35:05;50.67;;;44.20;;
15082;SDS011;7640;53.116;6.878;2023-05-07T00:37:35;52.60;;;40.83;;
15082;SDS011;7640;53.116;6.878;2023-05-07T00:40:04;44.53;;;36.40;;
15082;SDS011;7640;53.116;6.878;2023-05-07T00:42:36;45.37;;;33.47;;
15082;SDS011;7640;53.116;6.878;2023-05-07T00:45:06;47.43;;;36.23;;
15082;SDS011;7640;53.116;6.878;2023-05-07T00:47:35;47.40;;;34.43;;
15082;SDS011;7640;53.116;6.878;2023-05-07T00:50:04;45.43;;;32.97;;
15082;SDS011;7640;53.116;6.878;2023-05-07T00:52:36;47.30;;;33.53;;
15082;SDS011;7640;53.116;6.878;2023-05-07T00:55:07;45.60;;;32.77;;
15082;SDS011;7640;53.116;6.878;2023-05-07T00:57:37;46.03;;;32.83;;
15082;SDS011;7640;53.116;6.878;2023-05-07T01:00:08;46.60;;;33.83;;
15082;SDS011;7640;53.116;6.878;2023-05-07T01:02:40;46.67;;;33.60;;
15082;SDS011;7640;53.116;6.878;2023-05-07T01:05:10;47.53;;;34.50;;
15082;SDS011;7640;53.116;6.878;2023-05-07T01:07:42;48.30;;;34.83;;
15082;SDS011;7640;53.116;6.878;2023-05-07T01:10:13;42.80;;;31.57;;
15082;SDS011;7640;53.116;6.878;2023-05-07T01:12:42;49.80;;;32.97;;
15082;SDS011;7640;53.116;6.878;2023-05-07T01:15:13;47.23;;;32.20;;
15082;SDS011;7640;53.116;6.878;2023-05-07T01:17:42;46.50;;;32.90;;
15082;SDS011;7640;53.116;6.878;2023-05-07T01:20:11;46.63;;;34.03;;
15082;SDS011;7640;53.116;6.878;2023-05-07T01:22:43;45.23;;;33.43;;
15082;SDS011;7640;53.116;6.878;2023-05-07T01:25:12;45.47;;;31.70;;
15082;SDS011;7640;53.116;6.878;2023-05-07T01:27:42;50.00;;;33.57;;
15082;SDS011;7640;53.116;6.878;2023-05-07T01:30:11;46.57;;;33.63;;
15082;SDS011;7640;53.116;6.878;2023-05-07T01:32:40;52.10;;;34.27;;
15082;SDS011;7640;53.116;6.878;2023-05-07T01:35:16;49.50;;;32.80;;
15082;SDS011;7640;53.116;6.878;2023-05-07T01:37:52;49.27;;;33.67;;
15082;SDS011;7640;53.116;6.878;2023-05-07T01:40:22;48.37;;;33.37;;
15082;SDS011;7640;53.116;6.878;2023-05-07T01:42:52;53.83;;;33.97;;
15082;SDS011;7640;53.116;6.878;2023-05-07T01:45:22;53.73;;;36.90;;
15082;SDS011;7640;53.116;6.878;2023-05-07T01:47:57;53.67;;;35.33;;
15082;SDS011;7640;53.116;6.878;2023-05-07T01:50:26;54.90;;;35.57;;
15082;SDS011;7640;53.116;6.878;2023-05-07T01:52:57;58.63;;;37.70;;
15082;SDS011;7640;53.116;6.878;2023-05-07T01:55:26;57.93;;;38.63;;
15082;SDS011;7640;53.116;6.878;2023-05-07T01:57:54;56.40;;;37.70;;
15082;SDS011;7640;53.116;6.878;2023-05-07T02:00:23;55.20;;;36.30;;
15082;SDS011;7640;53.116;6.878;2023-05-07T02:02:57;58.00;;;37.70;;
15082;SDS011;7640;53.116;6.878;2023-05-07T02:05:27;55.77;;;37.13;;
15082;SDS011;7640;53.116;6.878;2023-05-07T02:07:57;57.57;;;36.47;;
15082;SDS011;7640;53.116;6.878;2023-05-07T02:10:25;52.30;;;36.87;;
15082;SDS011;7640;53.116;6.878;2023-05-07T02:12:54;55.37;;;35.70;;
15082;SDS011;7640;53.116;6.878;2023-05-07T02:15:22;53.00;;;36.20;;
15082;SDS011;7640;53.116;6.878;2023-05-07T02:17:58;56.47;;;36.70;;
15082;SDS011;7640;53.116;6.878;2023-05-07T02:20:28;56.63;;;37.40;;
15082;SDS011;7640;53.116;6.878;2023-05-07T02:22:58;59.30;;;37.37;;
15082;SDS011;7640;53.116;6.878;2023-05-07T02:25:26;57.27;;;36.53;;
15082;SDS011;7640;53.116;6.878;2023-05-07T02:27:55;60.17;;;37.27;;
15082;SDS011;7640;53.116;6.878;2023-05-07T02:30:24;60.50;;;37.17;;
15082;SDS011;7640;53.116;6.878;2023-05-07T02:32:53;56.20;;;37.20;;
15082;SDS011;7640;53.116;6.878;2023-05-07T02:35:23;63.13;;;40.47;;
15082;SDS011;7640;53.116;6.878;2023-05-07T02:37:52;59.80;;;38.10;;
15082;SDS011;7640;53.116;6.878;2023-05-07T02:40:22;55.27;;;36.13;;
15082;SDS011;7640;53.116;6.878;2023-05-07T02:42:51;62.67;;;39.50;;
15082;SDS011;7640;53.116;6.878;2023-05-07T02:45:20;65.77;;;40.47;;
15082;SDS011;7640;53.116;6.878;2023-05-07T02:47:48;61.17;;;38.30;;
15082;SDS011;7640;53.116;6.878;2023-05-07T02:50:18;64.53;;;39.70;;
15082;SDS011;7640;53.116;6.878;2023-05-07T02:52:54;61.37;;;38.93;;
15082;SDS011;7640;53.116;6.878;2023-05-07T02:55:24;68.17;;;40.63;;
15082;SDS011;7640;53.116;6.878;2023-05-07T02:57:53;64.37;;;39.23;;
15082;SDS011;7640;53.116;6.878;2023-05-07T03:00:21;61.10;;;38.57;;
15082;SDS011;7640;53.116;6.878;2023-05-07T03:02:51;65.70;;;39.20;;
15082;SDS011;7640;53.116;6.878;2023-05-07T03:05:20;62.90;;;39.23;;
15082;SDS011;7640;53.116;6.878;2023-05-07T03:07:50;66.87;;;41.20;;
15082;SDS011;7640;53.116;6.878;2023-05-07T03:10:19;58.33;;;38.53;;
15082;SDS011;7640;53.116;6.878;2023-05-07T03:12:49;62.53;;;38.30;;
15082;SDS011;7640;53.116;6.878;2023-05-07T03:15:18;64.77;;;40.03;;
15082;SDS011;7640;53.116;6.878;2023-05-07T03:17:48;57.93;;;36.50;;
15082;SDS011;7640;53.116;6.878;2023-05-07T03:20:16;61.17;;;37.73;;
15082;SDS011;7640;53.116;6.878;2023-05-07T03:22:45;56.70;;;37.23;;
15082;SDS011;7640;53.116;6.878;2023-05-07T03:25:13;58.37;;;38.23;;
15082;SDS011;7640;53.116;6.878;2023-05-07T03:27:42;63.67;;;39.80;;
15082;SDS011;7640;53.116;6.878;2023-05-07T03:30:12;53.30;;;37.17;;
15082;SDS011;7640;53.116;6.878;2023-05-07T03:32:41;62.33;;;38.70;;
15082;SDS011;7640;53.116;6.878;2023-05-07T03:35:10;62.97;;;39.67;;
15082;SDS011;7640;53.116;6.878;2023-05-07T03:37:38;55.90;;;37.33;;
15082;SDS011;7640;53.116;6.878;2023-05-07T03:40:08;56.80;;;38.37;;
15082;SDS011;7640;53.116;6.878;2023-05-07T03:42:39;56.30;;;37.73;;
15082;SDS011;7640;53.116;6.878;2023-05-07T03:45:08;58.10;;;37.47;;
15082;SDS011;7640;53.116;6.878;2023-05-07T03:47:39;55.27;;;37.43;;
15082;SDS011;7640;53.116;6.878;2023-05-07T03:50:08;61.50;;;38.30;;
15082;SDS011;7640;53.116;6.878;2023-05-07T03:52:38;57.37;;;36.40;;
15082;SDS011;7640;53.116;6.878;2023-05-07T03:55:07;58.97;;;37.20;;
15082;SDS011;7640;53.116;6.878;2023-05-07T03:57:36;57.93;;;37.10;;
15082;SDS011;7640;53.116;6.878;2023-05-07T04:00:05;53.20;;;35.50;;
15082;SDS011;7640;53.116;6.878;2023-05-07T04:02:36;55.23;;;35.97;;
15082;SDS011;7640;53.116;6.878;2023-05-07T04:05:06;50.90;;;35.17;;
15082;SDS011;7640;53.116;6.878;2023-05-07T04:07:35;51.97;;;34.87;;
15082;SDS011;7640;53.116;6.878;2023-05-07T04:10:04;51.90;;;35.93;;
15082;SDS011;7640;53.116;6.878;2023-05-07T04:12:34;50.70;;;35.73;;
15082;SDS011;7640;53.116;6.878;2023-05-07T04:15:02;51.87;;;34.43;;
15082;SDS011;7640;53.116;6.878;2023-05-07T04:17:31;49.93;;;34.00;;
15082;SDS011;7640;53.116;6.878;2023-05-07T04:20:00;53.33;;;34.97;;
15082;SDS011;7640;53.116;6.878;2023-05-07T04:22:30;49.13;;;34.80;;
15082;SDS011;7640;53.116;6.878;2023-05-07T04:24:58;50.57;;;33.37;;
15082;SDS011;7640;53.116;6.878;2023-05-07T04:27:27;47.43;;;32.43;;
15082;SDS011;7640;53.116;6.878;2023-05-07T04:29:56;50.23;;;33.63;;
15082;SDS011;7640;53.116;6.878;2023-05-07T04:32:24;52.40;;;33.87;;
15082;SDS011;7640;53.116;6.878;2023-05-07T04:34:55;49.83;;;33.23;;
15082;SDS011;7640;53.116;6.878;2023-05-07T04:37:25;50.97;;;33.33;;
15082;SDS011;7640;53.116;6.878;2023-05-07T04:39:55;53.73;;;34.13;;
15082;SDS011;7640;53.116;6.878;2023-05-07T04:42:25;53.73;;;34.20;;
15082;SDS011;7640;53.116;6.878;2023-05-07T04:44:53;48.80;;;32.20;;
15082;SDS011;7640;53.116;6.878;2023-05-07T04:47:22;46.83;;;31.60;;
15082;SDS011;7640;53.116;6.878;2023-05-07T04:49:51;47.50;;;32.17;;
15082;SDS011;7640;53.116;6.878;2023-05-07T04:52:21;47.47;;;32.63;;
15082;SDS011;7640;53.116;6.878;2023-05-07T04:54:52;46.20;;;32.60;;
15082;SDS011;7640;53.116;6.878;2023-05-07T04:57:22;47.57;;;32.30;;
15082;SDS011;7640;53.116;6.878;2023-05-07T04:59:51;45.87;;;32.47;;
15082;SDS011;7640;53.116;6.878;2023-05-07T05:02:20;46.13;;;32.27;;
15082;SDS011;7640;53.116;6.878;2023-05-07T05:04:48;43.70;;;30.93;;
15082;SDS011;7640;53.116;6.878;2023-05-07T05:07:22;41.70;;;30.47;;
15082;SDS011;7640;53.116;6.878;2023-05-07T05:09:51;43.20;;;31.57;;
15082;SDS011;7640;53.116;6.878;2023-05-07T05:12:22;41.80;;;30.20;;
15082;SDS011;7640;53.116;6.878;2023-05-07T05:14:51;43.33;;;31.10;;
15082;SDS011;7640;53.116;6.878;2023-05-07T05:17:20;40.40;;;29.53;;
15082;SDS011;7640;53.116;6.878;2023-05-07T05:19:50;43.23;;;31.17;;
15082;SDS011;7640;53.116;6.878;2023-05-07T05:22:20;43.40;;;30.73;;
15082;SDS011;7640;53.116;6.878;2023-05-07T05:24:49;44.47;;;30.73;;
15082;SDS011;7640;53.116;6.878;2023-05-07T05:27:17;45.90;;;30.53;;
15082;SDS011;7640;53.116;6.878;2023-05-07T05:29:47;44.90;;;30.50;;
15082;SDS011;7640;53.116;6.878;2023-05-07T05:32:16;39.60;;;29.93;;
15082;SDS011;7640;53.116;6.878;2023-05-07T05:34:45;44.87;;;31.03;;
15082;SDS011;7640;53.116;6.878;2023-05-07T05:37:13;43.90;;;30.70;;
15082;SDS011;7640;53.116;6.878;2023-05-07T05:39:42;39.33;;;28.57;;
15082;SDS011;7640;53.116;6.878;2023-05-07T05:42:10;41.03;;;29.17;;
15082;SDS011;7640;53.116;6.878;2023-05-07T05:44:39;43.00;;;30.47;;
15082;SDS011;7640;53.116;6.878;2023-05-07T05:47:09;39.63;;;29.40;;
15082;SDS011;7640;53.116;6.878;2023-05-07T05:49:37;38.97;;;28.73;;
15082;SDS011;7640;53.116;6.878;2023-05-07T05:52:05;45.10;;;29.10;;
15082;SDS011;7640;53.116;6.878;2023-05-07T05:54:36;39.23;;;27.80;;
15082;SDS011;7640;53.116;6.878;2023-05-07T05:57:05;38.10;;;28.60;;
15082;SDS011;7640;53.116;6.878;2023-05-07T05:59:34;39.17;;;28.83;;
15082;SDS011;7640;53.116;6.878;2023-05-07T06:02:05;36.53;;;28.33;;
15082;SDS011;7640;53.116;6.878;2023-05-07T06:04:36;35.10;;;26.97;;
15082;SDS011;7640;53.116;6.878;2023-05-07T06:07:06;38.27;;;28.20;;
15082;SDS011;7640;53.116;6.878;2023-05-07T06:09:36;36.57;;;26.67;;
15082;SDS011;7640;53.116;6.878;2023-05-07T06:12:05;39.87;;;27.10;;
15082;SDS011;7640;53.116;6.878;2023-05-07T06:14:34;34.00;;;26.17;;
15082;SDS011;7640;53.116;6.878;2023-05-07T06:17:02;39.27;;;28.47;;
15082;SDS011;7640;53.116;6.878;2023-05-07T06:19:31;37.67;;;26.63;;
15082;SDS011;7640;53.116;6.878;2023-05-07T06:22:01;36.10;;;26.90;;
15082;SDS011;7640;53.116;6.878;2023-05-07T06:24:32;39.53;;;27.10;;
15082;SDS011;7640;53.116;6.878;2023-05-07T06:27:01;37.90;;;27.77;;
15082;SDS011;7640;53.116;6.878;2023-05-07T06:29:29;38.30;;;27.10;;
15082;SDS011;7640;53.116;6.878;2023-05-07T06:32:05;37.80;;;27.20;;
15082;SDS011;7640;53.116;6.878;2023-05-07T06:34:35;41.13;;;27.57;;
15082;SDS011;7640;53.116;6.878;2023-05-07T06:37:06;35.70;;;26.83;;
15082;SDS011;7640;53.116;6.878;2023-05-07T06:39:35;36.23;;;26.43;;
15082;SDS011;7640;53.116;6.878;2023-05-07T06:42:03;37.53;;;26.50;;
15082;SDS011;7640;53.116;6.878;2023-05-07T06:44:33;36.53;;;27.33;;
15082;SDS011;7640;53.116;6.878;2023-05-07T06:47:01;36.20;;;26.40;;
15082;SDS011;7640;53.116;6.878;2023-05-07T06:49:30;39.50;;;28.17;;
15082;SDS011;7640;53.116;6.878;2023-05-07T06:51:59;38.83;;;26.30;;
15082;SDS011;7640;53.116;6.878;2023-05-07T06:54:29;37.37;;;26.63;;
15082;SDS011;7640;53.116;6.878;2023-05-07T06:56:57;37.60;;;27.30;;
15082;SDS011;7640;53.116;6.878;2023-05-07T06:59:26;36.27;;;25.30;;
15082;SDS011;7640;53.116;6.878;2023-05-07T07:01:55;34.57;;;25.70;;
15082;SDS011;7640;53.116;6.878;2023-05-07T07:04:25;37.07;;;27.43;;
15082;SDS011;7640;53.116;6.878;2023-05-07T07:06:54;36.70;;;26.40;;
15082;SDS011;7640;53.116;6.878;2023-05-07T07:09:24;35.33;;;27.27;;
15082;SDS011;7640;53.116;6.878;2023-05-07T07:11:55;37.33;;;27.00;;
15082;SDS011;7640;53.116;6.878;2023-05-07T07:14:23;37.37;;;26.97;;
15082;SDS011;7640;53.116;6.878;2023-05-07T07:16:52;34.23;;;25.87;;
15082;SDS011;7640;53.116;6.878;2023-05-07T07:19:21;34.63;;;26.00;;
15082;SDS011;7640;53.116;6.878;2023-05-07T07:21:50;34.83;;;27.40;;
15082;SDS011;7640;53.116;6.878;2023-05-07T07:24:18;35.30;;;26.77;;
15082;SDS011;7640;53.116;6.878;2023-05-07T07:26:50;36.70;;;26.30;;
15082;SDS011;7640;53.116;6.878;2023-05-07T07:29:19;36.70;;;27.20;;
15082;SDS011;7640;53.116;6.878;2023-05-07T07:31:49;37.07;;;26.50;;
15082;SDS011;7640;53.116;6.878;2023-05-07T07:34:18;34.47;;;25.93;;
15082;SDS011;7640;53.116;6.878;2023-05-07T07:36:52;37.90;;;27.23;;
15082;SDS011;7640;53.116;6.878;2023-05-07T07:39:21;35.03;;;26.50;;
15082;SDS011;7640;53.116;6.878;2023-05-07T07:41:53;33.30;;;25.33;;
15082;SDS011;7640;53.116;6.878;2023-05-07T07:44:23;33.87;;;25.57;;
15082;SDS011;7640;53.116;6.878;2023-05-07T07:46:52;34.93;;;25.77;;
15082;SDS011;7640;53.116;6.878;2023-05-07T07:49:22;36.23;;;25.80;;
15082;SDS011;7640;53.116;6.878;2023-05-07T07:51:51;32.20;;;24.87;;
15082;SDS011;7640;53.116;6.878;2023-05-07T07:54:22;33.97;;;24.40;;
15082;SDS011;7640;53.116;6.878;2023-05-07T07:56:51;35.83;;;26.07;;
15082;SDS011;7640;53.116;6.878;2023-05-07T07:59:20;36.00;;;26.43;;
15082;SDS011;7640;53.116;6.878;2023-05-07T08:01:50;31.83;;;24.30;;
15082;SDS011;7640;53.116;6.878;2023-05-07T08:04:21;34.03;;;25.57;;
15082;SDS011;7640;53.116;6.878;2023-05-07T08:06:50;34.53;;;25.67;;
15082;SDS011;7640;53.116;6.878;2023-05-07T08:09:20;33.17;;;25.43;;
15082;SDS011;7640;53.116;6.878;2023-05-07T08:11:51;33.17;;;24.63;;
15082;SDS011;7640;53.116;6.878;2023-05-07T08:14:22;33.90;;;25.63;;
15082;SDS011;7640;53.116;6.878;2023-05-07T08:16:52;31.90;;;25.20;;
15082;SDS011;7640;53.116;6.878;2023-05-07T08:19:22;30.73;;;24.30;;
15082;SDS011;7640;53.116;6.878;2023-05-07T08:21:51;34.57;;;25.70;;
15082;SDS011;7640;53.116;6.878;2023-05-07T08:24:20;33.33;;;25.77;;
15082;SDS011;7640;53.116;6.878;2023-05-07T08:26:49;31.63;;;24.80;;
15082;SDS011;7640;53.116;6.878;2023-05-07T08:29:18;32.40;;;24.83;;
15082;SDS011;7640;53.116;6.878;2023-05-07T08:31:47;31.93;;;25.47;;
15082;SDS011;7640;53.116;6.878;2023-05-07T08:34:17;33.33;;;24.33;;
15082;SDS011;7640;53.116;6.878;2023-05-07T08:36:46;33.57;;;25.83;;
15082;SDS011;7640;53.116;6.878;2023-05-07T08:39:18;33.00;;;25.60;;
15082;SDS011;7640;53.116;6.878;2023-05-07T08:41:48;32.73;;;26.00;;
15082;SDS011;7640;53.116;6.878;2023-05-07T08:44:23;32.13;;;24.50;;
15082;SDS011;7640;53.116;6.878;2023-05-07T08:46:56;33.07;;;24.93;;
15082;SDS011;7640;53.116;6.878;2023-05-07T08:49:29;30.50;;;24.77;;
15082;SDS011;7640;53.116;6.878;2023-05-07T08:51:57;32.03;;;24.73;;
15082;SDS011;7640;53.116;6.878;2023-05-07T08:54:26;34.80;;;24.53;;
15082;SDS011;7640;53.116;6.878;2023-05-07T08:56:56;30.60;;;23.27;;
15082;SDS011;7640;53.116;6.878;2023-05-07T08:59:25;32.10;;;24.67;;
15082;SDS011;7640;53.116;6.878;2023-05-07T09:01:54;30.40;;;23.30;;
15082;SDS011;7640;53.116;6.878;2023-05-07T09:04:23;30.87;;;23.77;;
15082;SDS011;7640;53.116;6.878;2023-05-07T09:06:54;33.90;;;24.97;;
15082;SDS011;7640;53.116;6.878;2023-05-07T09:09:30;30.30;;;24.27;;
15082;SDS011;7640;53.116;6.878;2023-05-07T09:12:00;30.47;;;23.20;;
15082;SDS011;7640;53.116;6.878;2023-05-07T09:14:30;28.83;;;23.17;;
15082;SDS011;7640;53.116;6.878;2023-05-07T09:16:59;30.07;;;23.53;;
15082;SDS011;7640;53.116;6.878;2023-05-07T09:19:27;29.93;;;23.40;;
15082;SDS011;7640;53.116;6.878;2023-05-07T09:22:02;34.83;;;23.00;;
15082;SDS011;7640;53.116;6.878;2023-05-07T09:24:31;28.57;;;22.53;;
15082;SDS011;7640;53.116;6.878;2023-05-07T09:27:03;27.50;;;23.20;;
15082;SDS011;7640;53.116;6.878;2023-05-07T09:29:32;28.07;;;23.07;;
15082;SDS011;7640;53.116;6.878;2023-05-07T09:32:01;29.47;;;23.03;;
15082;SDS011;7640;53.116;6.878;2023-05-07T09:34:31;26.97;;;21.93;;
15082;SDS011;7640;53.116;6.878;2023-05-07T09:37:03;27.93;;;21.80;;
15082;SDS011;7640;53.116;6.878;2023-05-07T09:39:39;32.73;;;23.33;;
15082;SDS011;7640;53.116;6.878;2023-05-07T09:42:10;36.47;;;23.70;;
15082;SDS011;7640;53.116;6.878;2023-05-07T09:44:41;36.43;;;22.57;;
15082;SDS011;7640;53.116;6.878;2023-05-07T09:47:11;29.23;;;21.10;;
15082;SDS011;7640;53.116;6.878;2023-05-07T09:49:50;24.53;;;20.50;;
15082;SDS011;7640;53.116;6.878;2023-05-07T09:52:25;24.77;;;21.23;;
15082;SDS011;7640;53.116;6.878;2023-05-07T09:55:00;24.90;;;20.73;;
15082;SDS011;7640;53.116;6.878;2023-05-07T09:57:29;24.23;;;20.57;;
15082;SDS011;7640;53.116;6.878;2023-05-07T10:00:01;22.57;;;20.17;;
15082;SDS011;7640;53.116;6.878;2023-05-07T10:02:33;23.67;;;20.03;;
15082;SDS011;7640;53.116;6.878;2023-05-07T10:05:03;22.07;;;19.77;;
15082;SDS011;7640;53.116;6.878;2023-05-07T10:07:35;22.03;;;19.60;;
15082;SDS011;7640;53.116;6.878;2023-05-07T10:10:04;21.90;;;19.13;;
15082;SDS011;7640;53.116;6.878;2023-05-07T10:12:35;22.07;;;19.57;;
15082;SDS011;7640;53.116;6.878;2023-05-07T10:15:06;22.27;;;18.53;;
15082;SDS011;7640;53.116;6.878;2023-05-07T10:17:37;22.43;;;20.03;;
15082;SDS011;7640;53.116;6.878;2023-05-07T10:20:07;21.03;;;18.83;;
15082;SDS011;7640;53.116;6.878;2023-05-07T10:22:39;28.67;;;20.33;;
15082;SDS011;7640;53.116;6.878;2023-05-07T10:25:16;21.87;;;18.80;;
15082;SDS011;7640;53.116;6.878;2023-05-07T10:27:52;21.97;;;19.57;;
15082;SDS011;7640;53.116;6.878;2023-05-07T10:30:26;21.83;;;18.80;;
15082;SDS011;7640;53.116;6.878;2023-05-07T10:33:09;19.80;;;17.90;;
15082;SDS011;7640;53.116;6.878;2023-05-07T10:35:40;20.00;;;17.90;;
15082;SDS011;7640;53.116;6.878;2023-05-07T10:38:13;19.50;;;17.40;;
15082;SDS011;7640;53.116;6.878;2023-05-07T10:40:41;23.30;;;18.60;;
15082;SDS011;7640;53.116;6.878;2023-05-07T10:43:13;20.20;;;18.07;;
15082;SDS011;7640;53.116;6.878;2023-05-07T10:45:42;19.83;;;17.20;;
15082;SDS011;7640;53.116;6.878;2023-05-07T10:48:14;20.60;;;17.40;;
15082;SDS011;7640;53.116;6.878;2023-05-07T10:53:55;19.17;;;17.30;;
15082;SDS011;7640;53.116;6.878;2023-05-07T10:56:50;19.23;;;17.33;;
15082;SDS011;7640;53.116;6.878;2023-05-07T10:59:34;19.97;;;17.40;;
15082;SDS011;7640;53.116;6.878;2023-05-07T11:02:09;18.80;;;16.80;;
15082;SDS011;7640;53.116;6.878;2023-05-07T11:04:42;18.90;;;17.00;;
15082;SDS011;7640;53.116;6.878;2023-05-07T11:07:25;19.53;;;17.47;;
15082;SDS011;7640;53.116;6.878;2023-05-07T11:09:58;19.30;;;17.13;;
15082;SDS011;7640;53.116;6.878;2023-05-07T11:12:48;17.87;;;16.07;;
15082;SDS011;7640;53.116;6.878;2023-05-07T11:15:43;19.50;;;17.50;;
15082;SDS011;7640;53.116;6.878;2023-05-07T11:18:16;17.43;;;15.63;;
15082;SDS011;7640;53.116;6.878;2023-05-07T11:20:47;19.20;;;17.20;;
15082;SDS011;7640;53.116;6.878;2023-05-07T11:26:29;17.83;;;16.03;;
15082;SDS011;7640;53.116;6.878;2023-05-07T11:28:59;18.07;;;16.27;;
15082;SDS011;7640;53.116;6.878;2023-05-07T11:31:28;17.87;;;16.17;;
15082;SDS011;7640;53.116;6.878;2023-05-07T11:33:57;17.20;;;15.50;;
15082;SDS011;7640;53.116;6.878;2023-05-07T11:36:30;17.50;;;15.80;;
15082;SDS011;7640;53.116;6.878;2023-05-07T11:39:00;23.37;;;17.83;;
15082;SDS011;7640;53.116;6.878;2023-05-07T11:41:36;18.70;;;16.43;;
15082;SDS011;7640;53.116;6.878;2023-05-07T11:44:05;17.63;;;16.03;;
15082;SDS011;7640;53.116;6.878;2023-05-07T11:46:34;18.67;;;16.83;;
15082;SDS011;7640;53.116;6.878;2023-05-07T11:49:05;19.13;;;17.33;;
15082;SDS011;7640;53.116;6.878;2023-05-07T11:51:34;17.55;;;15.80;;
15082;SDS011;7640;53.116;6.878;2023-05-07T11:54:03;18.03;;;16.37;;
15082;SDS011;7640;53.116;6.878;2023-05-07T11:56:35;18.90;;;16.88;;
15082;SDS011;7640;53.116;6.878;2023-05-07T11:59:05;18.27;;;16.40;;
15082;SDS011;7640;53.116;6.878;2023-05-07T12:01:34;18.27;;;16.40;;
15082;SDS011;7640;53.116;6.878;2023-05-07T12:04:04;19.40;;;16.67;;
15082;SDS011;7640;53.116;6.878;2023-05-07T12:06:35;17.15;;;15.45;;
15082;SDS011;7640;53.116;6.878;2023-05-07T12:09:05;22.48;;;17.08;;
15082;SDS011;7640;53.116;6.878;2023-05-07T12:11:39;18.70;;;16.55;;
15082;SDS011;7640;53.116;6.878;2023-05-07T12:14:08;18.75;;;16.75;;
15082;SDS011;7640;53.116;6.878;2023-05-07T12:16:40;16.30;;;14.82;;
15082;SDS011;7640;53.116;6.878;2023-05-07T12:19:09;15.98;;;14.48;;
15082;SDS011;7640;53.116;6.878;2023-05-07T12:21:41;15.70;;;14.40;;
15082;SDS011;7640;53.116;6.878;2023-05-07T12:24:11;16.67;;;15.27;;
15082;SDS011;7640;53.116;6.878;2023-05-07T12:26:43;15.93;;;14.48;;
15082;SDS011;7640;53.116;6.878;2023-05-07T12:29:11;17.70;;;15.15;;
15082;SDS011;7640;53.116;6.878;2023-05-07T12:31:40;15.82;;;14.05;;
15082;SDS011;7640;53.116;6.878;2023-05-07T12:34:10;15.15;;;13.85;;
15082;SDS011;7640;53.116;6.878;2023-05-07T12:36:39;15.57;;;14.23;;
15082;SDS011;7640;53.116;6.878;2023-05-07T12:39:08;14.80;;;13.50;;
15082;SDS011;7640;53.116;6.878;2023-05-07T12:44:32;14.52;;;13.18;;
15082;SDS011;7640;53.116;6.878;2023-05-07T12:47:02;15.48;;;14.18;;
15082;SDS011;7640;53.116;6.878;2023-05-07T12:49:31;15.95;;;14.45;;
15082;SDS011;7640;53.116;6.878;2023-05-07T12:52:05;14.88;;;13.60;;
15082;SDS011;7640;53.116;6.878;2023-05-07T12:54:34;15.52;;;14.18;;
15082;SDS011;7640;53.116;6.878;2023-05-07T12:57:06;14.95;;;13.43;;
15082;SDS011;7640;53.116;6.878;2023-05-07T12:59:39;14.50;;;13.30;;
15082;SDS011;7640;53.116;6.878;2023-05-07T13:02:08;14.98;;;13.77;;
15082;SDS011;7640;53.116;6.878;2023-05-07T13:04:37;15.02;;;13.63;;
15082;SDS011;7640;53.116;6.878;2023-05-07T13:07:06;13.68;;;12.55;;
15082;SDS011;7640;53.116;6.878;2023-05-07T13:09:34;15.15;;;13.60;;
15082;SDS011;7640;53.116;6.878;2023-05-07T13:12:04;14.48;;;13.10;;
15082;SDS011;7640;53.116;6.878;2023-05-07T13:14:34;13.65;;;12.60;;
15082;SDS011;7640;53.116;6.878;2023-05-07T13:17:04;15.05;;;13.52;;
15082;SDS011;7640;53.116;6.878;2023-05-07T13:19:32;14.85;;;13.55;;
15082;SDS011;7640;53.116;6.878;2023-05-07T13:22:01;13.15;;;11.93;;
15082;SDS011;7640;53.116;6.878;2023-05-07T13:24:30;14.70;;;13.40;;
15082;SDS011;7640;53.116;6.878;2023-05-07T13:26:58;16.17;;;14.23;;
15082;SDS011;7640;53.116;6.878;2023-05-07T13:29:26;14.20;;;12.80;;
15082;SDS011;7640;53.116;6.878;2023-05-07T13:31:56;12.23;;;11.32;;
15082;SDS011;7640;53.116;6.878;2023-05-07T13:34:27;13.55;;;12.52;;
15082;SDS011;7640;53.116;6.878;2023-05-07T13:36:56;11.63;;;10.70;;
15082;SDS011;7640;53.116;6.878;2023-05-07T13:39:25;13.60;;;11.95;;
15082;SDS011;7640;53.116;6.878;2023-05-07T13:41:53;11.98;;;10.95;;
15082;SDS011;7640;53.116;6.878;2023-05-07T13:44:22;13.27;;;11.73;;
15082;SDS011;7640;53.116;6.878;2023-05-07T13:46:51;13.23;;;11.75;;
15082;SDS011;7640;53.116;6.878;2023-05-07T13:49:20;12.27;;;11.07;;
15082;SDS011;7640;53.116;6.878;2023-05-07T13:51:50;12.32;;;11.20;;
15082;SDS011;7640;53.116;6.878;2023-05-07T13:54:19;12.32;;;11.40;;
15082;SDS011;7640;53.116;6.878;2023-05-07T13:56:47;12.25;;;11.32;;
15082;SDS011;7640;53.116;6.878;2023-05-07T13:59:16;12.73;;;11.50;;
15082;SDS011;7640;53.116;6.878;2023-05-07T14:01:45;12.68;;;11.63;;
15082;SDS011;7640;53.116;6.878;2023-05-07T14:04:14;11.95;;;11.05;;
15082;SDS011;7640;53.116;6.878;2023-05-07T14:06:43;12.75;;;11.77;;
15082;SDS011;7640;53.116;6.878;2023-05-07T14:09:13;12.18;;;11.27;;
15082;SDS011;7640;53.116;6.878;2023-05-07T14:11:42;11.77;;;10.88;;
15082;SDS011;7640;53.116;6.878;2023-05-07T14:14:10;12.32;;;11.43;;
15082;SDS011;7640;53.116;6.878;2023-05-07T14:16:39;12.15;;;11.15;;
15082;SDS011;7640;53.116;6.878;2023-05-07T14:19:08;11.70;;;10.80;;
15082;SDS011;7640;53.116;6.878;2023-05-07T14:21:36;12.07;;;11.18;;
15082;SDS011;7640;53.116;6.878;2023-05-07T14:24:06;11.82;;;10.93;;
15082;SDS011;7640;53.116;6.878;2023-05-07T14:26:36;11.88;;;10.93;;
15082;SDS011;7640;53.116;6.878;2023-05-07T14:29:06;11.90;;;10.90;;
15082;SDS011;7640;53.116;6.878;2023-05-07T14:31:35;11.20;;;10.35;;
15082;SDS011;7640;53.116;6.878;2023-05-07T14:34:05;11.95;;;11.05;;
15082;SDS011;7640;53.116;6.878;2023-05-07T14:36:33;11.40;;;10.43;;
15082;SDS011;7640;53.116;6.878;2023-05-07T14:39:02;12.93;;;11.93;;
15082;SDS011;7640;53.116;6.878;2023-05-07T14:41:31;11.85;;;10.95;;
15082;SDS011;7640;53.116;6.878;2023-05-07T14:44:01;12.95;;;11.98;;
15082;SDS011;7640;53.116;6.878;2023-05-07T14:46:30;13.20;;;12.10;;
15082;SDS011;7640;53.116;6.878;2023-05-07T14:48:59;12.98;;;11.82;;
15082;SDS011;7640;53.116;6.878;2023-05-07T14:51:27;13.45;;;12.35;;
15082;SDS011;7640;53.116;6.878;2023-05-07T14:53:56;13.40;;;12.25;;
15082;SDS011;7640;53.116;6.878;2023-05-07T14:56:26;13.88;;;12.57;;
15082;SDS011;7640;53.116;6.878;2023-05-07T14:58:55;12.98;;;11.80;;